sensor_id;sensor_type;location;lat;lon;timestamp;temperature;humidity
38860;DHT22;24609;48.316;16.174;2022-09-03T00:00:18;10.90;99.90
38860;DHT22;24609;48.316;16.174;2022-09-03T00:03:05;11.10;99.90
38860;DHT22;24609;48.316;16.174;2022-09-03T00:05:55;11.20;99.90
38860;DHT22;24609;48.316;16.174;2022-09-03T00:08:47;11.10;99.90
38860;DHT22;24609;48.316;16.174;2022-09-03T00:11:19;11.10;99.90
38860;DHT22;24609;48.316;16.174;2022-09-03T00:13:57;11.10;99.90
38860;DHT22;24609;48.316;16.174;2022-09-03T00:16:27;10.90;99.90
38860;DHT22;24609;48.316;16.174;2022-09-03T00:19:01;10.90;99.90
38860;DHT22;24609;48.316;16.174;2022-09-03T00:21:41;10.80;99.90
38860;DHT22;24609;48.316;16.174;2022-09-03T00:24:12;10.70;99.90
38860;DHT22;24609;48.316;16.174;2022-09-03T00:26:43;10.70;99.90
38860;DHT22;24609;48.316;16.174;2022-09-03T00:29:32;10.60;99.90
38860;DHT22;24609;48.316;16.174;2022-09-03T00:32:06;10.60;99.90
38860;DHT22;24609;48.316;16.174;2022-09-03T00:34:39;10.60;99.90
38860;DHT22;24609;48.316;16.174;2022-09-03T00:37:10;10.50;99.90
38860;DHT22;24609;48.316;16.174;2022-09-03T00:39:37;10.40;99.90
38860;DHT22;24609;48.316;16.174;2022-09-03T00:48:02;10.30;99.90
38860;DHT22;24609;48.316;16.174;2022-09-03T00:53:51;10.30;99.90
38860;DHT22;24609;48.316;16.174;2022-09-03T00:56:49;10.20;99.90
38860;DHT22;24609;48.316;16.174;2022-09-03T01:03:04;10.20;99.90
38860;DHT22;24609;48.316;16.174;2022-09-03T01:05:10;10.20;99.90
38860;DHT22;24609;48.316;16.174;2022-09-03T01:11:13;10.20;99.90
38860;DHT22;24609;48.316;16.174;2022-09-03T01:28:03;10.00;99.90
38860;DHT22;24609;48.316;16.174;2022-09-03T01:30:39;10.10;99.90
38860;DHT22;24609;48.316;16.174;2022-09-03T01:36:18;10.00;99.90
38860;DHT22;24609;48.316;16.174;2022-09-03T01:38:59;9.90;99.90
38860;DHT22;24609;48.316;16.174;2022-09-03T01:45:00;9.90;99.90
38860;DHT22;24609;48.316;16.174;2022-09-03T01:50:48;9.80;99.90
38860;DHT22;24609;48.316;16.174;2022-09-03T01:53:44;9.90;99.90
38860;DHT22;24609;48.316;16.174;2022-09-03T01:59:17;9.70;99.90
38860;DHT22;24609;48.316;16.174;2022-09-03T02:01:56;9.70;99.90
38860;DHT22;24609;48.316;16.174;2022-09-03T02:04:26;9.70;99.90
38860;DHT22;24609;48.316;16.174;2022-09-03T02:06:55;9.70;99.90
38860;DHT22;24609;48.316;16.174;2022-09-03T02:09:22;9.70;99.90
38860;DHT22;24609;48.316;16.174;2022-09-03T02:12:05;9.80;99.90
38860;DHT22;24609;48.316;16.174;2022-09-03T02:14:33;9.80;99.90
38860;DHT22;24609;48.316;16.174;2022-09-03T02:17:01;9.80;99.90
38860;DHT22;24609;48.316;16.174;2022-09-03T02:19:28;9.70;99.90
38860;DHT22;24609;48.316;16.174;2022-09-03T02:21:55;9.60;99.90
38860;DHT22;24609;48.316;16.174;2022-09-03T02:24:25;9.60;99.90
38860;DHT22;24609;48.316;16.174;2022-09-03T02:26:52;9.60;99.90
38860;DHT22;24609;48.316;16.174;2022-09-03T02:29:18;9.50;99.90
38860;DHT22;24609;48.316;16.174;2022-09-03T02:31:44;9.50;99.90
38860;DHT22;24609;48.316;16.174;2022-09-03T02:34:10;9.60;99.90
38860;DHT22;24609;48.316;16.174;2022-09-03T02:36:46;9.70;99.90
38860;DHT22;24609;48.316;16.174;2022-09-03T02:39:13;9.70;99.90
38860;DHT22;24609;48.316;16.174;2022-09-03T02:41:39;9.70;99.90
38860;DHT22;24609;48.316;16.174;2022-09-03T02:44:23;9.60;99.90
38860;DHT22;24609;48.316;16.174;2022-09-03T02:47:01;9.50;99.90
38860;DHT22;24609;48.316;16.174;2022-09-03T02:49:28;9.50;99.90
38860;DHT22;24609;48.316;16.174;2022-09-03T02:52:04;9.60;99.90
38860;DHT22;24609;48.316;16.174;2022-09-03T02:54:31;9.50;99.90
38860;DHT22;24609;48.316;16.174;2022-09-03T02:57:00;9.50;99.90
38860;DHT22;24609;48.316;16.174;2022-09-03T02:59:26;9.50;99.90
38860;DHT22;24609;48.316;16.174;2022-09-03T03:01:55;9.40;99.90
38860;DHT22;24609;48.316;16.174;2022-09-03T03:04:21;9.40;99.90
38860;DHT22;24609;48.316;16.174;2022-09-03T03:06:47;9.30;99.90
38860;DHT22;24609;48.316;16.174;2022-09-03T03:09:17;9.30;99.90
38860;DHT22;24609;48.316;16.174;2022-09-03T03:11:43;9.30;99.90
38860;DHT22;24609;48.316;16.174;2022-09-03T03:14:09;9.30;99.90
38860;DHT22;24609;48.316;16.174;2022-09-03T03:16:35;9.20;99.90
38860;DHT22;24609;48.316;16.174;2022-09-03T03:19:01;9.20;99.90
38860;DHT22;24609;48.316;16.174;2022-09-03T03:21:27;9.20;99.90
38860;DHT22;24609;48.316;16.174;2022-09-03T03:23:53;9.10;99.90
38860;DHT22;24609;48.316;16.174;2022-09-03T03:26:20;9.10;99.90
38860;DHT22;24609;48.316;16.174;2022-09-03T03:28:48;9.10;99.90
38860;DHT22;24609;48.316;16.174;2022-09-03T03:31:16;9.20;99.90
38860;DHT22;24609;48.316;16.174;2022-09-03T03:33:42;9.20;99.90
38860;DHT22;24609;48.316;16.174;2022-09-03T03:36:13;9.10;99.90
38860;DHT22;24609;48.316;16.174;2022-09-03T03:38:41;9.00;99.90
38860;DHT22;24609;48.316;16.174;2022-09-03T03:43:33;8.90;99.90
38860;DHT22;24609;48.316;16.174;2022-09-03T03:45:59;8.90;99.90
38860;DHT22;24609;48.316;16.174;2022-09-03T03:48:25;8.90;99.90
38860;DHT22;24609;48.316;16.174;2022-09-03T03:50:51;8.90;99.90
38860;DHT22;24609;48.316;16.174;2022-09-03T03:53:17;8.90;99.90
38860;DHT22;24609;48.316;16.174;2022-09-03T03:55:52;8.80;99.90
38860;DHT22;24609;48.316;16.174;2022-09-03T03:58:18;8.80;99.90
38860;DHT22;24609;48.316;16.174;2022-09-03T04:00:44;8.80;99.90
38860;DHT22;24609;48.316;16.174;2022-09-03T04:03:12;8.70;99.90
38860;DHT22;24609;48.316;16.174;2022-09-03T04:05:38;8.70;99.90
38860;DHT22;24609;48.316;16.174;2022-09-03T04:08:03;8.70;99.90
38860;DHT22;24609;48.316;16.174;2022-09-03T04:10:29;8.60;99.90
38860;DHT22;24609;48.316;16.174;2022-09-03T04:12:55;8.70;99.90
38860;DHT22;24609;48.316;16.174;2022-09-03T04:15:20;8.70;99.90
38860;DHT22;24609;48.316;16.174;2022-09-03T04:17:46;8.60;99.90
38860;DHT22;24609;48.316;16.174;2022-09-03T04:20:12;8.50;99.90
38860;DHT22;24609;48.316;16.174;2022-09-03T04:22:37;8.50;99.90
38860;DHT22;24609;48.316;16.174;2022-09-03T04:25:03;8.50;99.90
38860;DHT22;24609;48.316;16.174;2022-09-03T04:27:29;8.50;99.90
38860;DHT22;24609;48.316;16.174;2022-09-03T04:29:55;8.60;99.90
38860;DHT22;24609;48.316;16.174;2022-09-03T04:32:21;8.70;99.90
38860;DHT22;24609;48.316;16.174;2022-09-03T04:35:05;8.70;99.90
38860;DHT22;24609;48.316;16.174;2022-09-03T04:37:31;8.70;99.90
38860;DHT22;24609;48.316;16.174;2022-09-03T04:39:57;8.80;99.90
38860;DHT22;24609;48.316;16.174;2022-09-03T04:42:23;8.80;99.90
38860;DHT22;24609;48.316;16.174;2022-09-03T04:44:49;8.90;99.90
38860;DHT22;24609;48.316;16.174;2022-09-03T04:47:15;8.90;99.90
38860;DHT22;24609;48.316;16.174;2022-09-03T04:49:41;9.00;99.90
38860;DHT22;24609;48.316;16.174;2022-09-03T04:52:06;9.00;99.90
38860;DHT22;24609;48.316;16.174;2022-09-03T04:54:32;9.00;99.90
38860;DHT22;24609;48.316;16.174;2022-09-03T04:56:58;9.00;99.90
38860;DHT22;24609;48.316;16.174;2022-09-03T04:59:23;9.10;99.90
38860;DHT22;24609;48.316;16.174;2022-09-03T05:01:49;9.20;99.90
38860;DHT22;24609;48.316;16.174;2022-09-03T05:04:17;9.20;99.90
38860;DHT22;24609;48.316;16.174;2022-09-03T05:06:43;9.30;99.90
38860;DHT22;24609;48.316;16.174;2022-09-03T05:09:09;9.40;99.90
38860;DHT22;24609;48.316;16.174;2022-09-03T05:11:35;9.50;99.90
38860;DHT22;24609;48.316;16.174;2022-09-03T05:14:01;9.50;99.90
38860;DHT22;24609;48.316;16.174;2022-09-03T05:16:28;9.50;99.90
38860;DHT22;24609;48.316;16.174;2022-09-03T05:18:57;9.60;99.90
38860;DHT22;24609;48.316;16.174;2022-09-03T05:21:28;9.80;99.90
38860;DHT22;24609;48.316;16.174;2022-09-03T05:23:55;9.90;99.90
38860;DHT22;24609;48.316;16.174;2022-09-03T05:26:24;9.90;99.90
38860;DHT22;24609;48.316;16.174;2022-09-03T05:28:58;10.00;99.90
38860;DHT22;24609;48.316;16.174;2022-09-03T05:31:25;10.10;99.90
38860;DHT22;24609;48.316;16.174;2022-09-03T05:33:57;10.20;99.90
38860;DHT22;24609;48.316;16.174;2022-09-03T05:36:26;10.40;99.90
38860;DHT22;24609;48.316;16.174;2022-09-03T05:38:52;10.50;99.90
38860;DHT22;24609;48.316;16.174;2022-09-03T05:41:21;10.60;99.90
38860;DHT22;24609;48.316;16.174;2022-09-03T05:43:49;10.80;99.90
38860;DHT22;24609;48.316;16.174;2022-09-03T05:46:22;10.90;99.90
38860;DHT22;24609;48.316;16.174;2022-09-03T05:48:54;11.00;99.90
38860;DHT22;24609;48.316;16.174;2022-09-03T05:51:20;11.10;99.90
38860;DHT22;24609;48.316;16.174;2022-09-03T05:53:47;11.20;99.90
38860;DHT22;24609;48.316;16.174;2022-09-03T05:56:16;11.30;99.90
38860;DHT22;24609;48.316;16.174;2022-09-03T05:58:44;11.40;99.90
38860;DHT22;24609;48.316;16.174;2022-09-03T06:01:21;11.50;99.90
38860;DHT22;24609;48.316;16.174;2022-09-03T06:03:54;11.60;99.90
38860;DHT22;24609;48.316;16.174;2022-09-03T06:06:21;11.70;99.90
38860;DHT22;24609;48.316;16.174;2022-09-03T06:08:54;11.90;99.90
38860;DHT22;24609;48.316;16.174;2022-09-03T06:11:21;12.10;99.90
38860;DHT22;24609;48.316;16.174;2022-09-03T06:13:50;12.30;99.90
38860;DHT22;24609;48.316;16.174;2022-09-03T06:16:15;12.50;99.90
38860;DHT22;24609;48.316;16.174;2022-09-03T06:18:41;12.80;99.90
38860;DHT22;24609;48.316;16.174;2022-09-03T06:21:08;13.40;99.90
38860;DHT22;24609;48.316;16.174;2022-09-03T06:23:34;14.20;99.90
38860;DHT22;24609;48.316;16.174;2022-09-03T06:28:35;16.50;99.90
38860;DHT22;24609;48.316;16.174;2022-09-03T06:31:03;17.60;99.90
38860;DHT22;24609;48.316;16.174;2022-09-03T06:33:31;17.30;99.90
38860;DHT22;24609;48.316;16.174;2022-09-03T06:35:57;16.70;99.90
38860;DHT22;24609;48.316;16.174;2022-09-03T06:38:29;17.10;99.90
38860;DHT22;24609;48.316;16.174;2022-09-03T06:40:58;17.90;99.90
38860;DHT22;24609;48.316;16.174;2022-09-03T06:43:28;18.40;99.90
38860;DHT22;24609;48.316;16.174;2022-09-03T06:45:58;17.70;99.90
38860;DHT22;24609;48.316;16.174;2022-09-03T06:48:25;17.60;99.90
38860;DHT22;24609;48.316;16.174;2022-09-03T06:53:25;19.90;99.90
38860;DHT22;24609;48.316;16.174;2022-09-03T06:55:56;19.70;99.90
38860;DHT22;24609;48.316;16.174;2022-09-03T06:58:23;19.30;99.90
38860;DHT22;24609;48.316;16.174;2022-09-03T07:00:49;19.50;99.90
38860;DHT22;24609;48.316;16.174;2022-09-03T07:03:17;21.00;99.90
38860;DHT22;24609;48.316;16.174;2022-09-03T07:05:43;19.80;99.90
38860;DHT22;24609;48.316;16.174;2022-09-03T07:08:09;18.60;99.90
38860;DHT22;24609;48.316;16.174;2022-09-03T07:10:36;18.30;99.90
38860;DHT22;24609;48.316;16.174;2022-09-03T07:13:03;19.20;99.90
38860;DHT22;24609;48.316;16.174;2022-09-03T07:15:31;19.80;99.90
38860;DHT22;24609;48.316;16.174;2022-09-03T07:17:58;20.20;99.90
38860;DHT22;24609;48.316;16.174;2022-09-03T07:20:23;20.50;99.90
38860;DHT22;24609;48.316;16.174;2022-09-03T07:22:49;18.30;99.90
38860;DHT22;24609;48.316;16.174;2022-09-03T07:25:15;17.40;99.90
38860;DHT22;24609;48.316;16.174;2022-09-03T07:27:40;17.00;99.90
38860;DHT22;24609;48.316;16.174;2022-09-03T07:30:07;17.30;99.90
38860;DHT22;24609;48.316;16.174;2022-09-03T07:32:34;18.00;99.90
38860;DHT22;24609;48.316;16.174;2022-09-03T07:35:05;18.30;99.90
38860;DHT22;24609;48.316;16.174;2022-09-03T07:37:30;19.30;99.90
38860;DHT22;24609;48.316;16.174;2022-09-03T07:39:56;19.20;99.90
38860;DHT22;24609;48.316;16.174;2022-09-03T07:42:22;19.40;99.90
38860;DHT22;24609;48.316;16.174;2022-09-03T07:44:47;19.00;99.90
38860;DHT22;24609;48.316;16.174;2022-09-03T07:47:13;19.10;99.90
38860;DHT22;24609;48.316;16.174;2022-09-03T07:49:39;19.90;99.90
38860;DHT22;24609;48.316;16.174;2022-09-03T07:52:05;20.90;99.90
38860;DHT22;24609;48.316;16.174;2022-09-03T07:54:31;20.60;99.90
38860;DHT22;24609;48.316;16.174;2022-09-03T07:56:57;20.40;99.90
38860;DHT22;24609;48.316;16.174;2022-09-03T07:59:23;22.20;99.90
38860;DHT22;24609;48.316;16.174;2022-09-03T08:01:49;22.90;98.20
38860;DHT22;24609;48.316;16.174;2022-09-03T08:04:15;22.40;99.40
38860;DHT22;24609;48.316;16.174;2022-09-03T08:06:41;22.20;99.60
38860;DHT22;24609;48.316;16.174;2022-09-03T08:09:09;23.50;98.10
38860;DHT22;24609;48.316;16.174;2022-09-03T08:11:37;23.20;96.40
38860;DHT22;24609;48.316;16.174;2022-09-03T08:14:06;23.10;95.80
38860;DHT22;24609;48.316;16.174;2022-09-03T08:16:40;23.00;95.30
38860;DHT22;24609;48.316;16.174;2022-09-03T08:19:07;23.80;94.00
38860;DHT22;24609;48.316;16.174;2022-09-03T08:21:33;25.00;93.40
38860;DHT22;24609;48.316;16.174;2022-09-03T08:23:59;26.70;86.50
38860;DHT22;24609;48.316;16.174;2022-09-03T08:26:32;28.40;82.70
38860;DHT22;24609;48.316;16.174;2022-09-03T08:28:59;30.10;71.40
38860;DHT22;24609;48.316;16.174;2022-09-03T08:31:25;30.30;68.00
38860;DHT22;24609;48.316;16.174;2022-09-03T08:33:53;27.00;71.00
38860;DHT22;24609;48.316;16.174;2022-09-03T08:36:25;27.70;72.70
38860;DHT22;24609;48.316;16.174;2022-09-03T08:38:54;30.10;67.10
38860;DHT22;24609;48.316;16.174;2022-09-03T08:41:32;31.20;60.40
38860;DHT22;24609;48.316;16.174;2022-09-03T08:45:04;28.50;59.60
38860;DHT22;24609;48.316;16.174;2022-09-03T08:47:39;27.80;66.90
38860;DHT22;24609;48.316;16.174;2022-09-03T08:50:24;26.60;69.60
38860;DHT22;24609;48.316;16.174;2022-09-03T08:52:59;28.20;64.80
38860;DHT22;24609;48.316;16.174;2022-09-03T08:55:34;28.00;67.80
38860;DHT22;24609;48.316;16.174;2022-09-03T08:58:34;28.00;64.30
38860;DHT22;24609;48.316;16.174;2022-09-03T09:09:49;31.40;53.80
38860;DHT22;24609;48.316;16.174;2022-09-03T09:21:08;33.60;51.40
38860;DHT22;24609;48.316;16.174;2022-09-03T09:23:45;32.00;51.50
38860;DHT22;24609;48.316;16.174;2022-09-03T09:26:17;31.00;53.90
38860;DHT22;24609;48.316;16.174;2022-09-03T09:28:54;29.70;55.00
38860;DHT22;24609;48.316;16.174;2022-09-03T09:31:21;28.80;56.50
38860;DHT22;24609;48.316;16.174;2022-09-03T09:33:47;28.30;58.00
38860;DHT22;24609;48.316;16.174;2022-09-03T09:36:16;28.40;57.90
38860;DHT22;24609;48.316;16.174;2022-09-03T09:38:44;28.50;57.50
38860;DHT22;24609;48.316;16.174;2022-09-03T09:41:18;28.90;58.70
38860;DHT22;24609;48.316;16.174;2022-09-03T09:43:45;31.40;56.20
38860;DHT22;24609;48.316;16.174;2022-09-03T09:46:20;32.40;53.50
38860;DHT22;24609;48.316;16.174;2022-09-03T09:48:52;33.60;50.20
38860;DHT22;24609;48.316;16.174;2022-09-03T09:51:25;33.70;50.30
38860;DHT22;24609;48.316;16.174;2022-09-03T09:54:16;35.30;48.60
38860;DHT22;24609;48.316;16.174;2022-09-03T09:56:56;34.90;48.10
38860;DHT22;24609;48.316;16.174;2022-09-03T09:59:22;33.00;49.20
38860;DHT22;24609;48.316;16.174;2022-09-03T10:01:48;32.40;49.60
38860;DHT22;24609;48.316;16.174;2022-09-03T10:04:25;34.00;49.60
38860;DHT22;24609;48.316;16.174;2022-09-03T10:07:02;36.70;48.40
38860;DHT22;24609;48.316;16.174;2022-09-03T10:09:31;37.60;44.60
38860;DHT22;24609;48.316;16.174;2022-09-03T10:20:45;38.30;42.50
38860;DHT22;24609;48.316;16.174;2022-09-03T10:23:25;37.00;43.30
38860;DHT22;24609;48.316;16.174;2022-09-03T10:26:12;38.90;42.70
38860;DHT22;24609;48.316;16.174;2022-09-03T10:28:40;39.40;41.60
38860;DHT22;24609;48.316;16.174;2022-09-03T10:34:08;36.70;41.10
38860;DHT22;24609;48.316;16.174;2022-09-03T10:36:58;38.10;40.30
38860;DHT22;24609;48.316;16.174;2022-09-03T10:39:28;37.50;41.90
38860;DHT22;24609;48.316;16.174;2022-09-03T10:48:08;35.70;41.60
38860;DHT22;24609;48.316;16.174;2022-09-03T11:01:41;35.30;41.50
38860;DHT22;24609;48.316;16.174;2022-09-03T11:07:04;37.00;40.00
38860;DHT22;24609;48.316;16.174;2022-09-03T11:09:50;37.40;41.10
38860;DHT22;24609;48.316;16.174;2022-09-03T11:12:26;37.50;40.60
38860;DHT22;24609;48.316;16.174;2022-09-03T11:15:04;36.40;41.80
38860;DHT22;24609;48.316;16.174;2022-09-03T11:17:44;35.90;41.80
38860;DHT22;24609;48.316;16.174;2022-09-03T11:20:16;36.60;41.30
38860;DHT22;24609;48.316;16.174;2022-09-03T11:22:43;36.10;41.20
38860;DHT22;24609;48.316;16.174;2022-09-03T11:25:13;35.10;42.90
38860;DHT22;24609;48.316;16.174;2022-09-03T11:27:52;36.60;43.00
38860;DHT22;24609;48.316;16.174;2022-09-03T11:33:19;37.10;41.80
38860;DHT22;24609;48.316;16.174;2022-09-03T11:35:57;39.40;39.30
38860;DHT22;24609;48.316;16.174;2022-09-03T11:38:27;38.40;40.90
38860;DHT22;24609;48.316;16.174;2022-09-03T11:41:43;38.90;39.30
38860;DHT22;24609;48.316;16.174;2022-09-03T11:43:45;40.60;38.20
38860;DHT22;24609;48.316;16.174;2022-09-03T11:48:48;34.20;43.70
38860;DHT22;24609;48.316;16.174;2022-09-03T11:53:51;38.30;39.20
38860;DHT22;24609;48.316;16.174;2022-09-03T11:56:18;40.60;37.90
38860;DHT22;24609;48.316;16.174;2022-09-03T11:58:44;39.30;38.20
38860;DHT22;24609;48.316;16.174;2022-09-03T12:01:12;37.80;40.40
38860;DHT22;24609;48.316;16.174;2022-09-03T12:03:56;37.50;39.80
38860;DHT22;24609;48.316;16.174;2022-09-03T12:17:07;38.40;40.30
38860;DHT22;24609;48.316;16.174;2022-09-03T12:19:55;36.70;40.20
38860;DHT22;24609;48.316;16.174;2022-09-03T12:22:24;37.70;39.40
38860;DHT22;24609;48.316;16.174;2022-09-03T12:24:50;35.30;41.90
38860;DHT22;24609;48.316;16.174;2022-09-03T12:27:21;34.70;43.90
38860;DHT22;24609;48.316;16.174;2022-09-03T12:29:58;34.30;43.00
38860;DHT22;24609;48.316;16.174;2022-09-03T12:32:35;36.50;41.00
38860;DHT22;24609;48.316;16.174;2022-09-03T12:35:18;36.00;41.40
38860;DHT22;24609;48.316;16.174;2022-09-03T12:37:45;34.20;45.50
38860;DHT22;24609;48.316;16.174;2022-09-03T12:40:22;32.30;46.70
38860;DHT22;24609;48.316;16.174;2022-09-03T12:42:49;33.30;46.10
38860;DHT22;24609;48.316;16.174;2022-09-03T12:45:19;33.10;46.50
38860;DHT22;24609;48.316;16.174;2022-09-03T12:47:45;33.00;46.10
38860;DHT22;24609;48.316;16.174;2022-09-03T12:50:20;31.70;48.00
38860;DHT22;24609;48.316;16.174;2022-09-03T12:52:53;32.00;49.10
38860;DHT22;24609;48.316;16.174;2022-09-03T12:58:02;32.10;49.40
38860;DHT22;24609;48.316;16.174;2022-09-03T13:00:29;32.00;49.40
38860;DHT22;24609;48.316;16.174;2022-09-03T13:03:05;31.30;48.70
38860;DHT22;24609;48.316;16.174;2022-09-03T13:05:35;30.20;51.50
38860;DHT22;24609;48.316;16.174;2022-09-03T13:08:04;31.80;49.60
38860;DHT22;24609;48.316;16.174;2022-09-03T13:10:41;30.90;49.70
38860;DHT22;24609;48.316;16.174;2022-09-03T13:13:22;30.20;51.60
38860;DHT22;24609;48.316;16.174;2022-09-03T13:18:41;33.80;47.00
38860;DHT22;24609;48.316;16.174;2022-09-03T13:30:01;28.10;55.00
38860;DHT22;24609;48.316;16.174;2022-09-03T13:40:51;27.40;57.00
38860;DHT22;24609;48.316;16.174;2022-09-03T13:43:30;27.70;56.20
38860;DHT22;24609;48.316;16.174;2022-09-03T13:46:16;28.10;55.50
38860;DHT22;24609;48.316;16.174;2022-09-03T13:48:47;28.00;56.70
38860;DHT22;24609;48.316;16.174;2022-09-03T13:52:14;28.10;56.60
38860;DHT22;24609;48.316;16.174;2022-09-03T13:54:52;28.40;55.70
38860;DHT22;24609;48.316;16.174;2022-09-03T13:57:52;28.80;54.20
38860;DHT22;24609;48.316;16.174;2022-09-03T14:01:03;29.60;52.40
38860;DHT22;24609;48.316;16.174;2022-09-03T14:03:31;30.90;51.90
38860;DHT22;24609;48.316;16.174;2022-09-03T14:14:56;29.10;55.20
38860;DHT22;24609;48.316;16.174;2022-09-03T14:25:32;31.50;49.10
38860;DHT22;24609;48.316;16.174;2022-09-03T14:28:34;31.50;49.40
38860;DHT22;24609;48.316;16.174;2022-09-03T14:31:10;30.50;50.80
38860;DHT22;24609;48.316;16.174;2022-09-03T14:36:29;28.40;54.40
38860;DHT22;24609;48.316;16.174;2022-09-03T14:39:06;27.80;55.20
38860;DHT22;24609;48.316;16.174;2022-09-03T14:52:21;26.60;58.80
38860;DHT22;24609;48.316;16.174;2022-09-03T14:57:47;26.30;59.70
38860;DHT22;24609;48.316;16.174;2022-09-03T15:00:17;25.90;59.20
38860;DHT22;24609;48.316;16.174;2022-09-03T15:10:59;25.50;61.50
38860;DHT22;24609;48.316;16.174;2022-09-03T15:13:30;25.60;59.70
38860;DHT22;24609;48.316;16.174;2022-09-03T15:18:31;25.60;60.30
38860;DHT22;24609;48.316;16.174;2022-09-03T15:21:12;25.70;61.20
38860;DHT22;24609;48.316;16.174;2022-09-03T15:37:26;24.80;63.80
38860;DHT22;24609;48.316;16.174;2022-09-03T15:40:09;25.00;64.10
38860;DHT22;24609;48.316;16.174;2022-09-03T15:42:41;25.00;62.30
38860;DHT22;24609;48.316;16.174;2022-09-03T15:51:04;25.00;63.00
38860;DHT22;24609;48.316;16.174;2022-09-03T15:56:15;24.80;63.20
38860;DHT22;24609;48.316;16.174;2022-09-03T15:59:02;24.80;65.00
38860;DHT22;24609;48.316;16.174;2022-09-03T16:01:46;24.60;63.70
38860;DHT22;24609;48.316;16.174;2022-09-03T16:06:57;24.50;64.50
38860;DHT22;24609;48.316;16.174;2022-09-03T16:09:50;24.50;65.60
38860;DHT22;24609;48.316;16.174;2022-09-03T16:15:21;24.20;66.60
38860;DHT22;24609;48.316;16.174;2022-09-03T16:18:00;24.10;66.60
38860;DHT22;24609;48.316;16.174;2022-09-03T16:20:45;24.00;67.30
38860;DHT22;24609;48.316;16.174;2022-09-03T16:23:44;23.90;68.10
38860;DHT22;24609;48.316;16.174;2022-09-03T16:26:41;23.70;68.60
38860;DHT22;24609;48.316;16.174;2022-09-03T16:29:31;23.50;70.60
38860;DHT22;24609;48.316;16.174;2022-09-03T16:32:26;23.40;70.80
38860;DHT22;24609;48.316;16.174;2022-09-03T16:35:22;23.30;72.10
38860;DHT22;24609;48.316;16.174;2022-09-03T16:38:04;23.30;72.30
38860;DHT22;24609;48.316;16.174;2022-09-03T16:43:23;23.30;73.30
38860;DHT22;24609;48.316;16.174;2022-09-03T16:51:37;22.90;75.90
38860;DHT22;24609;48.316;16.174;2022-09-03T17:00:18;22.70;77.70
38860;DHT22;24609;48.316;16.174;2022-09-03T17:19:47;22.40;83.50
38860;DHT22;24609;48.316;16.174;2022-09-03T17:25:14;22.30;85.20
38860;DHT22;24609;48.316;16.174;2022-09-03T17:30:56;22.30;86.80
38860;DHT22;24609;48.316;16.174;2022-09-03T17:33:48;22.30;86.80
38860;DHT22;24609;48.316;16.174;2022-09-03T17:36:26;22.30;88.00
38860;DHT22;24609;48.316;16.174;2022-09-03T17:42:11;22.20;89.40
38860;DHT22;24609;48.316;16.174;2022-09-03T17:49:53;22.00;91.20
38860;DHT22;24609;48.316;16.174;2022-09-03T17:52:28;22.10;91.50
38860;DHT22;24609;48.316;16.174;2022-09-03T17:57:44;22.00;92.10
38860;DHT22;24609;48.316;16.174;2022-09-03T18:00:24;21.90;92.70
38860;DHT22;24609;48.316;16.174;2022-09-03T18:02:59;21.80;92.80
38860;DHT22;24609;48.316;16.174;2022-09-03T18:11:47;21.80;93.60
38860;DHT22;24609;48.316;16.174;2022-09-03T18:14:27;21.90;93.40
38860;DHT22;24609;48.316;16.174;2022-09-03T18:17:07;21.80;93.40
38860;DHT22;24609;48.316;16.174;2022-09-03T18:19:41;21.80;93.80
38860;DHT22;24609;48.316;16.174;2022-09-03T18:22:35;21.70;94.20
38860;DHT22;24609;48.316;16.174;2022-09-03T18:25:24;21.70;94.40
38860;DHT22;24609;48.316;16.174;2022-09-03T18:28:13;21.60;94.70
38860;DHT22;24609;48.316;16.174;2022-09-03T18:30:58;21.50;95.20
38860;DHT22;24609;48.316;16.174;2022-09-03T18:33:42;21.50;95.50
38860;DHT22;24609;48.316;16.174;2022-09-03T18:36:29;21.40;96.30
38860;DHT22;24609;48.316;16.174;2022-09-03T18:39:26;21.40;96.10
38860;DHT22;24609;48.316;16.174;2022-09-03T18:48:47;21.40;96.70
38860;DHT22;24609;48.316;16.174;2022-09-03T18:51:55;21.40;96.80
38860;DHT22;24609;48.316;16.174;2022-09-03T18:57:47;21.30;97.60
38860;DHT22;24609;48.316;16.174;2022-09-03T19:00:58;21.30;98.00
38860;DHT22;24609;48.316;16.174;2022-09-03T19:07:10;21.20;99.10
38860;DHT22;24609;48.316;16.174;2022-09-03T19:10:15;21.20;99.80
38860;DHT22;24609;48.316;16.174;2022-09-03T19:22:25;21.10;99.90
38860;DHT22;24609;48.316;16.174;2022-09-03T19:25:13;21.00;99.90
38860;DHT22;24609;48.316;16.174;2022-09-03T19:34:49;21.00;99.90
38860;DHT22;24609;48.316;16.174;2022-09-03T19:40:52;20.90;99.90
38860;DHT22;24609;48.316;16.174;2022-09-03T19:46:57;20.90;99.90
38860;DHT22;24609;48.316;16.174;2022-09-03T19:52:54;20.90;99.90
38860;DHT22;24609;48.316;16.174;2022-09-03T19:55:52;20.90;99.90
38860;DHT22;24609;48.316;16.174;2022-09-03T19:58:40;20.90;99.90
38860;DHT22;24609;48.316;16.174;2022-09-03T20:01:32;20.90;99.90
38860;DHT22;24609;48.316;16.174;2022-09-03T20:04:18;20.90;99.90
38860;DHT22;24609;48.316;16.174;2022-09-03T20:07:05;21.00;99.90
38860;DHT22;24609;48.316;16.174;2022-09-03T20:09:54;20.90;99.90
38860;DHT22;24609;48.316;16.174;2022-09-03T20:12:45;20.90;99.90
38860;DHT22;24609;48.316;16.174;2022-09-03T20:15:13;21.00;99.90
38860;DHT22;24609;48.316;16.174;2022-09-03T20:18:01;20.90;99.90
38860;DHT22;24609;48.316;16.174;2022-09-03T20:20:45;20.90;99.90
38860;DHT22;24609;48.316;16.174;2022-09-03T20:23:39;20.90;99.90
38860;DHT22;24609;48.316;16.174;2022-09-03T20:32:07;20.90;99.90
38860;DHT22;24609;48.316;16.174;2022-09-03T20:35:35;20.90;99.90
38860;DHT22;24609;48.316;16.174;2022-09-03T20:41:07;20.90;99.90
38860;DHT22;24609;48.316;16.174;2022-09-03T20:43:41;20.80;99.90
38860;DHT22;24609;48.316;16.174;2022-09-03T20:51:36;20.80;99.90
38860;DHT22;24609;48.316;16.174;2022-09-03T20:54:21;20.80;99.90
38860;DHT22;24609;48.316;16.174;2022-09-03T21:05:18;20.60;99.90
38860;DHT22;24609;48.316;16.174;2022-09-03T21:16:12;20.20;99.90
38860;DHT22;24609;48.316;16.174;2022-09-03T21:19:09;20.20;99.90
38860;DHT22;24609;48.316;16.174;2022-09-03T21:24:20;20.20;99.90
38860;DHT22;24609;48.316;16.174;2022-09-03T21:26:50;20.10;99.90
38860;DHT22;24609;48.316;16.174;2022-09-03T21:29:31;20.10;99.90
38860;DHT22;24609;48.316;16.174;2022-09-03T21:34:30;20.10;99.90
38860;DHT22;24609;48.316;16.174;2022-09-03T21:37:03;20.10;99.90
38860;DHT22;24609;48.316;16.174;2022-09-03T21:44:50;20.20;99.90
38860;DHT22;24609;48.316;16.174;2022-09-03T21:47:18;20.30;99.90
38860;DHT22;24609;48.316;16.174;2022-09-03T21:50:00;20.30;99.90